createdAt,value
2022-12-29T00:01:37.889Z,78.89
2022-12-29T00:04:40.338Z,78.68
2022-12-29T00:07:42.393Z,77.96
2022-12-29T00:10:44.642Z,78.18
2022-12-29T00:14:05.538Z,77.34
2022-12-29T00:17:08.084Z,77.48
2022-12-29T00:20:28.718Z,78.04
2022-12-29T00:23:49.597Z,78.32
2022-12-29T00:27:25.967Z,78.61
2022-12-29T00:30:46.746Z,77.74
2022-12-29T00:34:07.280Z,78.51
2022-12-29T00:37:09.475Z,80.36
2022-12-29T00:40:30.264Z,79.05
2022-12-29T00:43:50.828Z,78.81
2022-12-29T00:46:53.127Z,78.82
2022-12-29T00:49:56.112Z,79.07
2022-12-29T00:52:58.327Z,79.74
2022-12-29T00:56:00.356Z,80.34
2022-12-29T00:59:04.561Z,79.49
2022-12-29T01:02:07.311Z,78.85
2022-12-29T01:05:10.378Z,78.30
2022-12-29T01:08:12.473Z,79.01
2022-12-29T01:11:14.633Z,78.59
2022-12-29T01:14:18.096Z,78.14
2022-12-29T01:17:20.319Z,78.99
2022-12-29T01:20:22.988Z,78.54
2022-12-29T01:23:25.597Z,78.52
2022-12-29T01:26:28.063Z,78.46
2022-12-29T01:29:30.776Z,79.10
2022-12-29T01:32:33.101Z,78.53
2022-12-29T01:35:36.314Z,78.21
2022-12-29T01:38:39.825Z,79.24
2022-12-29T01:41:42.557Z,79.36
2022-12-29T01:45:02.700Z,79.01
2022-12-29T01:48:09.891Z,79.18
2022-12-29T01:51:12.616Z,78.48
2022-12-29T01:54:23.615Z,78.56
2022-12-29T01:57:32.748Z,78.78
2022-12-29T02:00:34.903Z,79.86
2022-12-29T02:03:37.619Z,79.82
2022-12-29T02:06:56.888Z,79.78
2022-12-29T02:10:01.779Z,79.30
2022-12-29T02:13:04.537Z,79.67
2022-12-29T02:16:36.952Z,80.30
2022-12-29T02:19:48.109Z,79.87
2022-12-29T02:23:27.047Z,79.31
2022-12-29T02:26:42.152Z,78.99
2022-12-29T02:30:04.420Z,79.25
2022-12-29T02:33:31.660Z,79.70
2022-12-29T02:36:42.102Z,80.46
2022-12-29T02:40:24.117Z,79.95
2022-12-29T02:43:34.211Z,79.80
2022-12-29T02:46:49.558Z,80.33
2022-12-29T02:50:21.278Z,79.68
2022-12-29T02:53:43.860Z,79.57
2022-12-29T02:56:45.942Z,79.23
2022-12-29T02:59:54.748Z,79.08
2022-12-29T03:03:09.183Z,79.26
2022-12-29T03:06:17.288Z,79.64
2022-12-29T03:09:51.864Z,79.41
2022-12-29T03:13:43.614Z,79.51
2022-12-29T03:16:51.855Z,79.46
2022-12-29T03:20:05.980Z,79.16
2022-12-29T03:23:11.007Z,80.05
2022-12-29T03:26:14.283Z,79.20
2022-12-29T03:29:20.212Z,79.25
2022-12-29T03:32:32.496Z,79.42
2022-12-29T03:35:38.897Z,80.50
2022-12-29T03:38:48.775Z,80.46
2022-12-29T03:41:56.703Z,80.06
2022-12-29T03:44:58.855Z,81.19
2022-12-29T03:48:02.621Z,80.57
2022-12-29T03:51:05.075Z,79.42
2022-12-29T03:54:07.385Z,79.68
2022-12-29T03:57:10.513Z,79.57
2022-12-29T04:00:13.589Z,79.80
2022-12-29T04:03:15.682Z,80.01
2022-12-29T04:06:17.993Z,79.04
2022-12-29T04:09:20.079Z,78.94
2022-12-29T04:12:22.312Z,78.88
2022-12-29T04:15:25.547Z,78.89
2022-12-29T04:18:27.773Z,79.76
2022-12-29T04:21:30.344Z,80.25
2022-12-29T04:24:33.782Z,79.18
2022-12-29T04:27:36.185Z,79.28
2022-12-29T04:30:38.597Z,79.40
2022-12-29T04:33:42.409Z,80.39
2022-12-29T04:36:44.666Z,80.50
2022-12-29T04:39:47.915Z,80.67
2022-12-29T04:42:50.613Z,79.83
2022-12-29T04:45:52.659Z,80.81
2022-12-29T04:48:56.057Z,80.00
2022-12-29T04:51:58.359Z,79.43
2022-12-29T04:55:00.665Z,79.68
2022-12-29T04:58:03.121Z,79.23
2022-12-29T05:01:05.461Z,79.21
2022-12-29T05:04:07.594Z,78.59
2022-12-29T05:07:09.783Z,79.06
2022-12-29T05:10:12.427Z,79.09
2022-12-29T05:13:14.701Z,78.78
2022-12-29T05:16:16.738Z,79.25
2022-12-29T05:19:19.691Z,79.72
2022-12-29T05:22:22.461Z,80.70
2022-12-29T05:25:24.506Z,80.62
2022-12-29T05:28:26.552Z,80.91
2022-12-29T05:31:29.372Z,81.50
2022-12-29T05:34:31.395Z,81.43
2022-12-29T05:37:33.409Z,81.34
2022-12-29T05:40:35.629Z,82.02
2022-12-29T05:43:37.860Z,82.79
2022-12-29T05:46:40.427Z,81.81
2022-12-29T05:49:42.675Z,82.35
2022-12-29T05:52:46.798Z,81.71
2022-12-29T05:55:49.544Z,81.52
2022-12-29T05:58:51.928Z,81.58
2022-12-29T06:01:54.436Z,81.78
2022-12-29T06:04:56.635Z,81.87
2022-12-29T06:07:59.255Z,82.47
2022-12-29T06:11:02.960Z,81.21
2022-12-29T06:14:05.017Z,81.74
2022-12-29T06:17:07.623Z,82.32
2022-12-29T06:20:11.644Z,82.57
2022-12-29T06:23:14.390Z,81.74
2022-12-29T06:26:16.700Z,81.44
2022-12-29T06:29:19.576Z,82.04
2022-12-29T06:32:22.237Z,82.40
2022-12-29T06:35:24.701Z,82.82
2022-12-29T06:38:27.227Z,82.15
2022-12-29T06:41:32.572Z,81.83
2022-12-29T06:44:36.167Z,81.46
2022-12-29T06:47:38.237Z,81.54
2022-12-29T06:50:40.310Z,81.85
2022-12-29T06:53:42.334Z,81.28
2022-12-29T06:56:44.789Z,81.84
2022-12-29T06:59:48.899Z,81.49
2022-12-29T07:02:51.550Z,82.02
2022-12-29T07:05:55.366Z,82.09
2022-12-29T07:08:58.504Z,81.89
2022-12-29T07:12:00.993Z,81.92
2022-12-29T07:15:03.331Z,81.95
2022-12-29T07:18:05.607Z,81.94
2022-12-29T07:21:07.694Z,81.42
2022-12-29T07:24:10.735Z,80.63
2022-12-29T07:27:13.132Z,80.81
2022-12-29T07:30:15.525Z,80.74
2022-12-29T07:33:17.664Z,80.39
2022-12-29T07:36:19.650Z,80.41
2022-12-29T07:39:21.689Z,80.06
2022-12-29T07:42:23.760Z,80.72
2022-12-29T07:45:25.943Z,80.94
2022-12-29T07:48:28.579Z,81.67
2022-12-29T07:51:30.709Z,81.26
2022-12-29T07:54:32.789Z,81.32
2022-12-29T07:57:35.076Z,81.04
2022-12-29T08:00:37.448Z,81.14
2022-12-29T08:03:42.540Z,80.83
2022-12-29T08:06:46.554Z,81.52
2022-12-29T08:09:49.707Z,80.37
2022-12-29T08:12:51.739Z,79.76
2022-12-29T08:15:55.037Z,79.93
2022-12-29T08:18:57.876Z,80.05
2022-12-29T08:22:00.045Z,80.38
2022-12-29T08:25:02.383Z,80.14
2022-12-29T08:28:04.854Z,80.02
2022-12-29T08:31:06.860Z,79.37
2022-12-29T08:34:09.142Z,79.13
2022-12-29T08:37:11.448Z,79.40
2022-12-29T08:40:16.649Z,79.25
2022-12-29T08:43:20.263Z,78.89
2022-12-29T08:46:22.814Z,78.67
2022-12-29T08:49:25.353Z,78.59
2022-12-29T08:52:27.404Z,77.80
2022-12-29T08:55:32.214Z,78.66
2022-12-29T08:58:34.321Z,78.74
2022-12-29T09:01:37.631Z,77.99
2022-12-29T09:04:39.759Z,77.16
2022-12-29T09:07:41.998Z,77.22
2022-12-29T09:10:44.927Z,77.43
2022-12-29T09:13:48.113Z,77.75
2022-12-29T09:17:12.578Z,76.64
2022-12-29T09:20:17.369Z,77.32
2022-12-29T09:23:19.863Z,78.22
2022-12-29T09:26:22.307Z,78.32
2022-12-29T09:29:24.819Z,78.81
2022-12-29T09:32:32.614Z,77.14
2022-12-29T09:35:35.759Z,78.21
2022-12-29T09:38:37.865Z,78.10
2022-12-29T09:41:54.238Z,78.31
2022-12-29T09:45:08.996Z,78.55
2022-12-29T09:48:37.743Z,78.37
2022-12-29T09:51:44.528Z,77.39
2022-12-29T09:55:02.924Z,75.91
2022-12-29T09:58:18.130Z,75.97
2022-12-29T10:01:39.496Z,75.66
2022-12-29T10:04:43.278Z,76.14
2022-12-29T10:08:15.667Z,76.10
2022-12-29T10:12:00.498Z,76.74
2022-12-29T10:15:05.577Z,77.07
2022-12-29T10:18:44.094Z,77.22
2022-12-29T10:21:46.190Z,76.83
2022-12-29T10:24:54.498Z,77.13
2022-12-29T10:28:01.172Z,77.37
2022-12-29T10:31:09.566Z,76.71
2022-12-29T10:34:35.657Z,76.54
2022-12-29T10:37:48.502Z,77.11
2022-12-29T10:41:16.629Z,78.12
2022-12-29T10:44:21.117Z,78.50
2022-12-29T10:47:28.422Z,79.17
2022-12-29T10:50:31.380Z,79.24
2022-12-29T10:54:06.241Z,78.95
2022-12-29T10:57:33.207Z,78.99
2022-12-29T11:00:35.363Z,79.52
2022-12-29T11:03:49.673Z,79.25
2022-12-29T11:06:52.808Z,79.54
2022-12-29T11:09:55.140Z,79.17
2022-12-29T11:13:20.248Z,79.41
2022-12-29T11:16:32.031Z,79.04
2022-12-29T11:19:39.164Z,79.15
2022-12-29T11:22:46.316Z,78.56
2022-12-29T11:26:06.405Z,78.53
2022-12-29T11:29:08.710Z,78.60
2022-12-29T11:32:26.127Z,78.14
2022-12-29T11:35:34.381Z,77.82
2022-12-29T11:38:43.316Z,77.96
2022-12-29T11:41:54.129Z,77.87
2022-12-29T11:44:56.207Z,77.76
2022-12-29T11:48:02.785Z,77.76
2022-12-29T11:51:05.052Z,77.14
2022-12-29T11:54:08.437Z,76.39
2022-12-29T11:57:15.504Z,76.68
2022-12-29T12:00:21.108Z,76.54
2022-12-29T12:03:28.597Z,76.53
2022-12-29T12:06:36.561Z,76.73
2022-12-29T12:09:51.648Z,76.75
2022-12-29T12:13:19.350Z,76.54
2022-12-29T12:16:32.620Z,75.77
2022-12-29T12:20:18.238Z,76.87
2022-12-29T12:23:57.835Z,76.51
2022-12-29T12:27:23.104Z,76.75
2022-12-29T12:30:28.015Z,76.19
2022-12-29T12:33:42.861Z,76.48
2022-12-29T12:36:47.776Z,76.14
2022-12-29T12:40:17.778Z,76.64
2022-12-29T12:43:58.604Z,76.24
2022-12-29T12:47:23.680Z,76.57
2022-12-29T12:50:49.278Z,76.23
2022-12-29T12:53:55.975Z,75.74
2022-12-29T12:57:09.631Z,76.69
2022-12-29T13:00:13.184Z,75.89
2022-12-29T13:03:32.757Z,75.42
2022-12-29T13:06:43.929Z,74.92
2022-12-29T13:10:18.202Z,74.63
2022-12-29T13:13:23.111Z,74.67
2022-12-29T13:17:09.114Z,75.08
2022-12-29T13:20:29.679Z,74.99
2022-12-29T13:23:41.922Z,75.55
2022-12-29T13:27:08.328Z,74.74
2022-12-29T13:30:21.668Z,75.41
2022-12-29T13:33:55.927Z,75.56
2022-12-29T13:37:02.795Z,75.45
2022-12-29T13:40:14.717Z,76.76
2022-12-29T13:43:18.876Z,75.93
2022-12-29T13:46:29.596Z,75.37
2022-12-29T13:49:34.160Z,76.63
2022-12-29T13:52:40.981Z,77.07
2022-12-29T13:56:09.778Z,77.32
2022-12-29T13:59:24.183Z,76.60
2022-12-29T14:02:34.048Z,76.86
2022-12-29T14:05:38.142Z,77.48
2022-12-29T14:08:41.625Z,76.32
2022-12-29T14:11:45.529Z,76.74
2022-12-29T14:14:49.221Z,76.93
2022-12-29T14:18:16.641Z,77.70
2022-12-29T14:21:29.098Z,77.69
2022-12-29T14:24:35.901Z,77.64
2022-12-29T14:27:52.282Z,78.02
2022-12-29T14:30:57.557Z,77.42
2022-12-29T14:34:09.980Z,77.02
2022-12-29T14:37:27.099Z,77.67
2022-12-29T14:40:29.432Z,78.21
2022-12-29T14:43:32.758Z,78.01
2022-12-29T14:46:55.165Z,77.98
2022-12-29T14:50:04.239Z,78.00
2022-12-29T14:53:08.198Z,78.64
2022-12-29T14:56:13.101Z,78.80
2022-12-29T14:59:18.752Z,79.11
2022-12-29T15:02:26.469Z,78.21
2022-12-29T15:05:35.135Z,78.78
2022-12-29T15:08:54.041Z,78.29
2022-12-29T15:12:02.990Z,78.96
2022-12-29T15:15:27.133Z,78.66
2022-12-29T15:18:32.264Z,78.57
2022-12-29T15:21:36.922Z,79.83
2022-12-29T15:24:44.045Z,79.67
2022-12-29T15:27:54.758Z,78.91
2022-12-29T15:31:03.905Z,79.27
2022-12-29T15:34:13.405Z,78.99
2022-12-29T15:37:33.296Z,78.77
2022-12-29T15:40:35.515Z,79.24
2022-12-29T15:43:52.535Z,80.14
2022-12-29T15:46:55.068Z,80.38
2022-12-29T15:50:05.610Z,81.31
2022-12-29T15:53:19.034Z,80.66
2022-12-29T15:56:21.316Z,81.27
2022-12-29T15:59:26.808Z,81.13
2022-12-29T16:02:29.684Z,81.26
2022-12-29T16:05:37.306Z,81.42
2022-12-29T16:08:41.276Z,82.44
2022-12-29T16:11:48.722Z,82.75
2022-12-29T16:15:02.767Z,82.80
2022-12-29T16:18:05.017Z,82.84
2022-12-29T16:21:19.408Z,82.49
2022-12-29T16:24:26.912Z,82.70
2022-12-29T16:27:40.992Z,82.17
2022-12-29T16:30:43.229Z,80.76
2022-12-29T16:33:51.178Z,81.45
2022-12-29T16:37:04.008Z,82.32
2022-12-29T16:40:21.415Z,82.45
2022-12-29T16:43:32.558Z,82.56
2022-12-29T16:46:35.286Z,83.65
2022-12-29T16:49:41.798Z,83.91
2022-12-29T16:52:44.370Z,84.13
2022-12-29T16:55:51.611Z,83.58
2022-12-29T16:59:10.141Z,83.75
2022-12-29T17:02:17.922Z,83.77
2022-12-29T17:05:21.000Z,83.41
2022-12-29T17:08:26.223Z,83.95
2022-12-29T17:11:58.350Z,83.90
2022-12-29T17:15:12.472Z,84.31
2022-12-29T17:18:16.335Z,84.12
2022-12-29T17:21:18.959Z,84.01
2022-12-29T17:24:21.670Z,84.05
2022-12-29T17:27:39.221Z,83.91
2022-12-29T17:30:41.885Z,83.82
2022-12-29T17:33:45.046Z,84.36
2022-12-29T17:36:47.270Z,84.49
2022-12-29T17:39:49.660Z,84.74
2022-12-29T17:42:56.939Z,84.69
2022-12-29T17:45:59.543Z,85.02
2022-12-29T17:49:01.716Z,84.98
2022-12-29T17:52:06.048Z,84.72
2022-12-29T17:55:16.916Z,85.13
2022-12-29T17:58:22.433Z,84.96
2022-12-29T18:01:29.955Z,85.13
2022-12-29T18:04:36.696Z,85.82
2022-12-29T18:07:38.791Z,85.72
2022-12-29T18:10:41.386Z,86.13
2022-12-29T18:13:46.728Z,86.13
2022-12-29T18:16:51.599Z,85.65
2022-12-29T18:19:55.847Z,86.09
2022-12-29T18:22:59.222Z,85.85
2022-12-29T18:26:07.981Z,86.08
2022-12-29T18:29:10.485Z,86.42
2022-12-29T18:32:13.873Z,86.17
2022-12-29T18:35:28.621Z,86.29
2022-12-29T18:38:31.790Z,86.04
2022-12-29T18:41:35.338Z,86.23
2022-12-29T18:44:38.310Z,86.74
2022-12-29T18:47:40.761Z,86.85
2022-12-29T18:50:43.570Z,86.82
2022-12-29T18:53:46.394Z,86.87
2022-12-29T18:56:48.759Z,86.75
2022-12-29T18:59:51.780Z,86.49
2022-12-29T19:02:57.872Z,86.58
2022-12-29T19:06:01.246Z,86.86
2022-12-29T19:09:03.717Z,86.38
2022-12-29T19:12:06.172Z,86.74
2022-12-29T19:15:30.364Z,86.22
2022-12-29T19:19:04.107Z,87.00
2022-12-29T19:21:58.271Z,86.86
2022-12-29T19:25:01.651Z,86.62
2022-12-29T19:28:06.159Z,86.98
2022-12-29T19:31:09.063Z,86.82
2022-12-29T19:34:16.434Z,86.95
2022-12-29T19:37:18.466Z,87.14
2022-12-29T19:40:23.474Z,86.81
2022-12-29T19:43:26.490Z,86.56
2022-12-29T19:46:29.098Z,86.93
2022-12-29T19:49:32.207Z,87.06
2022-12-29T19:52:34.837Z,86.95
2022-12-29T19:55:37.575Z,86.56
2022-12-29T19:58:44.040Z,86.45
2022-12-29T20:01:49.374Z,86.47
2022-12-29T20:04:51.986Z,86.48
2022-12-29T20:07:54.250Z,86.88
2022-12-29T20:11:03.119Z,86.87
2022-12-29T20:14:05.988Z,86.81
2022-12-29T20:17:11.536Z,86.48
2022-12-29T20:20:14.233Z,86.53
2022-12-29T20:23:16.435Z,86.69
2022-12-29T20:26:24.421Z,86.72
2022-12-29T20:29:27.028Z,86.99
2022-12-29T20:32:29.281Z,87.16
2022-12-29T20:35:32.010Z,86.47
2022-12-29T20:38:34.205Z,87.03
2022-12-29T20:41:37.070Z,86.73
2022-12-29T20:44:39.235Z,86.63
2022-12-29T20:47:41.237Z,86.48
2022-12-29T20:50:43.538Z,86.39
2022-12-29T20:53:45.783Z,86.45
2022-12-29T20:56:48.822Z,86.69
2022-12-29T20:59:51.139Z,86.38
2022-12-29T21:02:53.326Z,86.39
2022-12-29T21:05:55.534Z,86.73
2022-12-29T21:08:58.304Z,86.56
2022-12-29T21:12:00.559Z,86.54
2022-12-29T21:15:07.344Z,86.82
2022-12-29T21:18:09.857Z,87.01
2022-12-29T21:21:21.559Z,86.58
2022-12-29T21:24:23.693Z,86.66
2022-12-29T21:27:26.149Z,86.64
2022-12-29T21:30:28.357Z,86.80
2022-12-29T21:33:30.527Z,86.65
2022-12-29T21:36:33.336Z,87.02
2022-12-29T21:39:35.481Z,86.55
2022-12-29T21:42:37.738Z,86.32
2022-12-29T21:45:40.227Z,86.75
2022-12-29T21:48:42.396Z,86.81
2022-12-29T21:51:50.264Z,86.66
2022-12-29T21:55:01.024Z,87.07
2022-12-29T21:58:21.501Z,86.77
2022-12-29T22:01:44.412Z,86.84
2022-12-29T22:05:05.432Z,86.67
2022-12-29T22:08:26.362Z,86.43
2022-12-29T22:11:47.232Z,86.68
2022-12-29T22:14:49.444Z,86.87
2022-12-29T22:17:53.377Z,86.53
2022-12-29T22:20:55.941Z,86.75
2022-12-29T22:23:58.310Z,86.52
2022-12-29T22:27:00.569Z,86.01
2022-12-29T22:30:03.027Z,85.76
2022-12-29T22:33:08.350Z,86.15
2022-12-29T22:36:10.601Z,85.77
2022-12-29T22:39:12.772Z,85.76
2022-12-29T22:42:14.827Z,84.99
2022-12-29T22:45:17.047Z,84.35
2022-12-29T22:48:19.226Z,84.44
2022-12-29T22:51:21.211Z,84.42
2022-12-29T22:54:23.315Z,84.66
2022-12-29T22:57:25.473Z,84.37
2022-12-29T23:00:27.685Z,84.16
2022-12-29T23:03:30.119Z,84.48
2022-12-29T23:06:32.992Z,84.60
2022-12-29T23:09:35.117Z,84.05
2022-12-29T23:12:37.511Z,83.95
2022-12-29T23:15:40.092Z,84.22
2022-12-29T23:18:43.621Z,83.91
2022-12-29T23:21:46.016Z,83.53
2022-12-29T23:24:48.646Z,83.78
2022-12-29T23:27:51.003Z,84.09
2022-12-29T23:30:53.209Z,84.08
2022-12-29T23:33:56.455Z,84.04
2022-12-29T23:36:58.822Z,84.55
2022-12-29T23:40:00.888Z,84.29
2022-12-29T23:43:03.058Z,84.09
2022-12-29T23:46:10.322Z,84.15
2022-12-29T23:49:12.778Z,84.25
2022-12-29T23:52:15.110Z,84.05
2022-12-29T23:55:17.968Z,84.64
2022-12-29T23:58:20.458Z,84.20
